KFAY/FAY METAR and TAF weather

Enter ICAO airport designator
Station Type Date Time Source
KFAY METAR 2021/03/07 07:53 UTC NOAA

KFAY 070753Z 34006KT 10SM CLR 03/M07 A3021 RMK AO2 SLP224 T00281067


Station Type Date Time Source
KFAY Decoded METAR 2021/03/07 07:53 UTC NOAA

FAYETTEVILLE REGIONAL AIRPORT , NC, United States (KFAY) 34-59N 078-53W 55M
Mar 07, 2021 - 02:53 AM EST / 2021.03.07 0753 UTC
Wind: from the NNW (340 degrees) at 7 MPH (6 KT):0
Visibility: 10 mile(s):0
Sky conditions: clear
Temperature: 37.0 F (2.8 C)
Dew Point: 19.9 F (-6.7 C)
Relative Humidity: 49%
Pressure (altimeter): 30.21 in. Hg (1023 hPa)
ob: KFAY 070753Z 34006KT 10SM CLR 03/M07 A3021 RMK AO2 SLP224 T00281067
cycle: 8

Station Type Date Time Source
KFAY TAF 2021/03/07 06:24 UTC NOAA

TAF KFAY 070520Z 0706/0806 VRB05KT P6SM SCT250
FM071500 01008KT P6SM SCT250

Example: see airport list